Etusivu
METAR-TAF:

METAR-TAF

Lentoasemat :

Gaines County Airport

Seminole, Texas, Yhdysvallat

Leveyspiiri: 32-40-31N, Pituuspiiri: 102-39-09W, korkeus merenpinnasta: 1010 m

Tämänhetkinen sää

Tämä raportti tehtiin 11 minuuttia sitten, kello 08.35 UTC
Tuuli 5 kn lounaasta
Lämpötila 17°C
Kosteus 77%
Ilmanpaine 1015 hPa
Näkyvyys: 16.1 km
selkeää

METAR: KGNC 220835Z AUTO 22005KT 10SM CLR 17/13 A2996 RMK AO2 T01650130

Aika: 03:46 (08:46 UTC)


TAF: puuttuu

Säähavainnot ja -ennusteet yli 4000 lentoasemalta (METAR- ja TAF-raportit).

Käytössä olevat sääasemat on merkitty karttaan keltaisilla ja punaisilla pisteillä.

Aseta hiiri pisteen päälle nähdäksesi sääaseman nimen.

Klikkaa sitten nähdäksesi säähavainnot ja -ennusteet.

Kartan vaihtaminen: klikkaa mustalla rastilla varustettuja vihreitä pisteitä, niin voit zoomata sisään; viivalla varustettua vihreää pistettä, niin voit zoomata ulos tai vihreitä nuolia, niin pääset viereisille kartoille.


METAR-TAF: